Time;durP1;ratioP1;P1;durP2;ratioP2;P2;SDS_P1;SDS_P2;PMS_P1;PMS_P2;Temp;Humidity;BMP_temperature;BMP_pressure;BME280_temperature;BME280_humidity;BME280_pressure;Samples;Min_cycle;Max_cycle;Signal;HPM_P1;HPM_P2
2023/08/14 00:01:53;;;;;;;11.75;8.65;;;;;;;17.43;76.29;98083.03;10329279;28;20117;-49
2023/08/14 00:06:53;;;;;;;13.75;9.02;;;;;;;17.44;76.30;98082.13;10329536;28;20052;-51
2023/08/14 00:11:52;;;;;;;15.63;9.52;;;;;;;17.40;76.41;98085.72;10327593;28;20108;-50
2023/08/14 00:16:51;;;;;;;13.85;9.07;;;;;;;17.45;76.19;98084.72;10328450;28;20397;-50
2023/08/14 00:21:50;;;;;;;13.15;9.18;;;;;;;17.51;76.15;98083.72;10326791;28;20113;-51
2023/08/14 00:26:49;;;;;;;12.48;9.50;;;;;;;17.54;75.94;98076.66;10329595;28;20064;-50
2023/08/14 00:31:48;;;;;;;10.50;8.27;;;;;;;17.52;75.93;98074.97;10327129;28;20025;-51
2023/08/14 00:36:47;;;;;;;;;;;;;;;17.53;76.06;98079.28;10328447;28;20029;-49
2023/08/14 00:41:46;;;;;;;11.87;8.17;;;;;;;17.31;76.61;98068.47;10326929;28;20372;-50
2023/08/14 00:46:45;;;;;;;10.20;8.00;;;;;;;17.07;76.91;98039.25;10325952;28;20060;-49
2023/08/14 00:51:44;;;;;;;11.23;8.38;;;;;;;17.22;77.10;98081.78;10326010;28;20049;-50
2023/08/14 00:56:43;;;;;;;10.20;8.25;;;;;;;17.20;77.11;98080.94;10327533;28;20053;-48
2023/08/14 01:01:42;;;;;;;9.00;7.70;;;;;;;17.14;76.73;98080.19;10325846;28;20025;-50
2023/08/14 01:06:41;;;;;;;11.07;7.97;;;;;;;17.10;76.59;98088.16;10327873;28;20128;-49
2023/08/14 01:12:01;;;;;;;10.32;8.63;;;;;;;17.04;76.68;98078.66;10326024;28;20506;-51
2023/08/14 01:17:06;;;;;;;9.45;7.70;;;;;;;16.95;76.97;98073.59;10327074;28;20059;-48
2023/08/14 01:22:24;;;;;;;10.75;8.27;;;;;;;16.77;77.50;98072.22;10328028;28;20046;-51
2023/08/14 01:27:23;;;;;;;10.60;8.43;;;;;;;16.72;77.95;98074.94;10327160;28;20067;-50
2023/08/14 01:32:22;;;;;;;11.88;8.95;;;;;;;16.59;77.89;98067.34;10328407;28;20117;-50
2023/08/14 01:37:24;;;;;;;10.98;9.10;;;;;;;16.58;78.58;98089.19;10325060;28;20057;-50
2023/08/14 01:42:33;;;;;;;12.40;9.02;;;;;;;16.50;78.73;98071.88;10325528;28;20050;-50
2023/08/14 01:47:33;;;;;;;;;;;;;;;16.47;79.25;98081.56;10323269;28;20077;-50
2023/08/14 01:52:32;;;;;;;14.13;10.18;;;;;;;16.39;79.90;98073.81;10327799;28;19979;-51
2023/08/14 01:57:32;;;;;;;12.13;10.45;;;;;;;16.32;79.93;98071.34;10332354;28;20061;-49
2023/08/14 02:02:31;;;;;;;11.93;10.18;;;;;;;16.26;80.48;98067.13;10333754;28;20087;-50
2023/08/14 02:07:30;;;;;;;11.52;9.63;;;;;;;16.23;80.79;98072.38;10336344;28;20065;-51
2023/08/14 02:12:30;;;;;;;13.45;11.07;;;;;;;16.11;81.26;98072.63;10335735;28;20053;-49
2023/08/14 02:17:29;;;;;;;12.00;9.70;;;;;;;16.07;81.89;98067.44;10335427;28;20069;-49
2023/08/14 02:22:28;;;;;;;;;;;;;;;16.05;82.37;98071.00;10338053;28;20045;-49
2023/08/14 02:27:27;;;;;;;14.13;10.43;;;;;;;16.02;82.35;98071.03;10333836;28;20391;-52
2023/08/14 02:32:26;;;;;;;;;;;;;;;15.95;83.05;98067.69;10338901;28;20115;-48
2023/08/14 02:37:25;;;;;;;18.67;10.30;;;;;;;15.75;83.70;98060.13;10334863;28;20003;-49
2023/08/14 02:42:24;;;;;;;;;;;;;;;15.82;83.90;98081.84;10337210;28;20017;-50
2023/08/14 02:47:22;;;;;;;17.48;11.05;;;;;;;15.74;83.80;98081.06;10335112;28;19916;-51
2023/08/14 02:52:21;;;;;;;;;;;;;;;15.65;84.33;98090.81;10335485;28;20029;-49
2023/08/14 02:57:20;;;;;;;13.57;10.90;;;;;;;15.52;84.69;98072.72;10334269;28;19948;-51
2023/08/14 03:02:19;;;;;;;;;;;;;;;15.53;84.56;98085.78;10331456;28;20421;-50
2023/08/14 03:07:18;;;;;;;13.60;11.17;;;;;;;15.47;84.87;98078.00;10330443;28;19971;-52
2023/08/14 03:12:16;;;;;;;;;;;;;;;15.47;84.93;98096.31;10330883;28;20021;-52
2023/08/14 03:17:16;;;;;;;17.15;11.35;;;;;;;15.45;84.83;98100.72;10328856;28;19956;-51
2023/08/14 03:22:15;;;;;;;14.77;10.88;;;;;;;15.43;85.35;98097.25;10331027;28;20064;-52
2023/08/14 03:27:14;;;;;;;;;;;;;;;15.38;84.95;98094.69;10330062;28;20132;-50
2023/08/14 03:32:12;;;;;;;14.90;12.20;;;;;;;15.19;84.91;98069.72;10328216;28;19917;-52
2023/08/14 03:37:11;;;;;;;;;;;;;;;15.34;85.02;98093.03;10331117;28;20025;-51
2023/08/14 03:42:10;;;;;;;14.60;10.45;;;;;;;15.31;84.82;98097.44;10331386;28;19912;-51
2023/08/14 03:47:09;;;;;;;13.35;10.45;;;;;;;15.28;84.72;98097.50;10329970;28;20026;-52
2023/08/14 03:52:08;;;;;;;;;;;;;;;15.27;84.42;98098.38;10329517;28;20034;-50
2023/08/14 03:57:07;;;;;;;18.80;10.68;;;;;;;15.27;85.25;98119.28;10326668;28;20364;-50
2023/08/14 04:02:05;;;;;;;;;;;;;;;15.27;85.78;98114.06;10329997;28;20736;-49
2023/08/14 04:07:04;;;;;;;17.27;12.25;;;;;;;15.20;85.93;98111.53;10326202;28;19956;-51
2023/08/14 04:12:03;;;;;;;;;;;;;;;15.23;86.19;98118.47;10329316;28;20138;-49
2023/08/14 04:17:03;;;;;;;19.08;12.27;;;;;;;15.27;86.45;98114.91;10327138;28;20303;-52
2023/08/14 04:22:02;;;;;;;19.70;12.60;;;;;;;15.22;86.86;98124.56;10329714;28;20072;-49
2023/08/14 04:27:00;;;;;;;;;;;;;;;15.14;87.88;98129.06;10328120;28;20449;-48
2023/08/14 04:31:59;;;;;;;19.47;11.47;;;;;;;15.03;88.69;98132.66;10326616;28;20862;-48
2023/08/14 04:36:58;;;;;;;15.85;11.57;;;;;;;15.03;88.95;98142.25;10325277;28;20588;-50
2023/08/14 04:41:57;;;;;;;;;;;;;;;15.20;88.35;98142.91;10329198;28;20469;-51
2023/08/14 04:46:56;;;;;;;14.70;10.85;;;;;;;15.33;87.47;98146.22;10325601;28;19986;-51
2023/08/14 04:51:55;;;;;;;;;;;;;;;15.37;88.16;98154.88;10327947;28;20479;-52
2023/08/14 04:56:54;;;;;;;15.68;11.55;;;;;;;15.51;87.40;98147.72;10321576;28;20059;-51
2023/08/14 05:01:52;;;;;;;;;;;;;;;15.64;86.91;98151.00;10330342;28;20026;-52
2023/08/14 05:06:51;;;;;;;15.10;11.13;;;;;;;15.74;86.40;98156.94;10328722;28;20086;-52
2023/08/14 05:11:50;;;;;;;16.80;11.93;;;;;;;15.90;85.94;98158.47;10317960;28;20069;-51
2023/08/14 05:16:49;;;;;;;;;;;;;;;16.15;84.82;98165.94;10333782;28;20067;-52
2023/08/14 05:21:48;;;;;;;16.13;10.63;;;;;;;16.24;84.97;98150.94;10327530;28;19912;-51
2023/08/14 05:26:48;;;;;;;14.35;11.13;;;;;;;16.61;84.76;98165.13;10330208;28;20056;-51
2023/08/14 05:31:47;;;;;;;12.32;10.43;;;;;;;16.99;83.13;98159.16;10329803;28;20028;-50
2023/08/14 05:36:46;;;;;;;;;;;;;;;17.21;81.72;98162.19;10327617;28;20025;-49
2023/08/14 05:41:45;;;;;;;13.70;10.63;;;;;;;17.45;80.17;98162.56;10329041;28;20500;-51
2023/08/14 05:46:44;;;;;;;12.93;10.40;;;;;;;17.59;78.80;98163.13;10322503;28;20044;-51
2023/08/14 05:51:44;;;;;;;;;;;;;;;17.90;77.16;98159.81;10326047;28;20026;-51
2023/08/14 05:56:45;;;;;;;13.20;9.35;;;;;;;17.92;76.12;98158.03;10317592;28;19980;-51
2023/08/14 06:01:45;;;;;;;16.45;10.10;;;;;;;18.18;77.02;98170.50;10323469;28;20049;-50
2023/08/14 06:06:44;;;;;;;11.50;8.82;;;;;;;18.52;74.91;98164.38;10318452;28;20077;-50
2023/08/14 06:11:43;;;;;;;16.50;10.30;;;;;;;18.82;72.89;98168.84;10323165;28;20116;-50
2023/08/14 06:16:42;;;;;;;16.98;8.90;;;;;;;19.08;72.52;98176.91;10311994;28;20033;-51
2023/08/14 06:21:41;;;;;;;10.15;7.65;;;;;;;19.39;69.75;98169.84;10321132;28;20833;-50
2023/08/14 06:26:41;;;;;;;11.88;8.52;;;;;;;19.68;67.99;98162.88;10318871;28;20382;-52
2023/08/14 06:31:40;;;;;;;13.38;7.97;;;;;;;19.89;66.68;98176.28;10320874;28;20148;-49
2023/08/14 06:36:39;;;;;;;14.07;8.05;;;;;;;20.17;66.49;98163.91;10316982;28;20108;-51
2023/08/14 06:41:38;;;;;;;13.68;7.63;;;;;;;20.50;65.04;98169.00;10324833;28;20072;-51
2023/08/14 06:46:38;;;;;;;12.27;7.85;;;;;;;20.79;61.83;98169.75;10327994;28;20029;-49
2023/08/14 06:51:37;;;;;;;9.98;6.72;;;;;;;20.93;59.35;98159.56;10328969;28;20053;-49
2023/08/14 06:56:36;;;;;;;9.38;6.28;;;;;;;21.14;58.96;98166.66;10330753;28;20056;-51
2023/08/14 07:01:36;;;;;;;15.00;6.47;;;;;;;21.43;59.09;98175.31;10332908;28;20103;-48
2023/08/14 07:06:35;;;;;;;9.65;6.78;;;;;;;21.75;58.15;98175.84;10330694;28;20469;-52
2023/08/14 07:11:38;;;;;;;14.63;6.65;;;;;;;21.89;54.29;98176.16;10325971;28;20782;-48
2023/08/14 07:16:37;;;;;;;9.57;7.43;;;;;;;22.28;55.22;98180.78;10328614;28;20065;-52
2023/08/14 07:21:36;;;;;;;10.18;6.75;;;;;;;22.65;52.72;98176.56;10330166;28;20047;-50
2023/08/14 07:26:35;;;;;;;8.48;5.90;;;;;;;23.17;52.95;98169.00;10327721;28;20453;-51
2023/08/14 07:31:34;;;;;;;9.65;6.25;;;;;;;23.38;50.22;98175.09;10332204;28;20510;-50
2023/08/14 07:36:33;;;;;;;9.30;5.35;;;;;;;23.99;49.75;98168.69;10328841;28;20171;-52
2023/08/14 07:41:32;;;;;;;6.40;5.47;;;;;;;24.37;47.55;98176.56;10323379;28;20040;-52
2023/08/14 07:46:31;;;;;;;9.85;6.10;;;;;;;24.69;47.59;98166.97;10328338;28;20108;-50
2023/08/14 07:51:30;;;;;;;7.40;5.60;;;;;;;24.98;46.84;98167.28;10325050;28;20120;-52
2023/08/14 07:56:30;;;;;;;10.55;5.70;;;;;;;25.50;47.18;98166.25;10327018;28;20106;-50
2023/08/14 08:01:29;;;;;;;8.52;5.38;;;;;;;25.89;45.31;98159.69;10323168;28;20124;-52
2023/08/14 08:06:28;;;;;;;10.55;5.65;;;;;;;25.86;44.13;98163.38;10327149;28;20129;-51
2023/08/14 08:11:27;;;;;;;9.25;5.85;;;;;;;26.03;44.51;98146.44;10320572;28;20033;-51
2023/08/14 08:16:26;;;;;;;9.32;5.43;;;;;;;26.44;44.75;98147.66;10322572;28;20771;-51
2023/08/14 08:21:25;;;;;;;6.47;5.50;;;;;;;26.44;42.85;98147.66;10325404;28;20531;-50
2023/08/14 08:26:25;;;;;;;9.55;5.63;;;;;;;25.99;42.34;98144.91;10323733;28;20473;-52
2023/08/14 08:31:24;;;;;;;6.68;5.50;;;;;;;25.82;43.31;98145.03;10323751;28;20057;-51
2023/08/14 08:36:23;;;;;;;10.52;5.10;;;;;;;25.22;42.90;98117.31;10324926;28;20112;-51
2023/08/14 08:41:31;;;;;;;8.10;5.50;;;;;;;25.39;43.99;98107.56;10328514;28;20072;-50
2023/08/14 08:46:34;;;;;;;6.88;4.88;;;;;;;25.83;42.01;98133.44;10324529;28;20113;-48
2023/08/14 08:51:34;;;;;;;10.18;4.95;;;;;;;26.12;41.89;98140.59;10321383;28;20077;-51
2023/08/14 08:56:34;;;;;;;8.00;4.78;;;;;;;26.61;41.49;98133.34;10322548;28;20132;-50
2023/08/14 09:01:32;;;;;;;5.57;3.83;;;;;;;27.08;38.92;98118.97;10323273;28;20060;-53
2023/08/14 09:06:31;;;;;;;4.93;4.15;;;;;;;27.12;38.52;98125.78;10323475;28;20045;-50
2023/08/14 09:11:30;;;;;;;8.65;4.60;;;;;;;26.97;37.73;98120.47;10324288;28;20405;-51
2023/08/14 09:16:29;;;;;;;5.50;4.07;;;;;;;26.93;36.82;98115.44;10323520;28;20031;-49
2023/08/14 09:21:29;;;;;;;5.38;4.10;;;;;;;26.84;36.90;98110.66;10323462;28;20108;-51
2023/08/14 09:26:29;;;;;;;4.60;3.78;;;;;;;26.72;36.83;98117.56;10325052;28;20072;-52
2023/08/14 09:31:31;;;;;;;5.43;4.57;;;;;;;26.74;38.39;98115.66;10326179;28;20096;-52
2023/08/14 09:36:36;;;;;;;6.78;4.25;;;;;;;26.54;38.12;98108.91;10322058;28;20128;-51
2023/08/14 09:41:36;;;;;;;5.18;4.05;;;;;;;26.46;39.60;98106.69;10323931;28;20068;-48
2023/08/14 09:46:35;;;;;;;4.55;4.00;;;;;;;26.32;38.85;98104.00;10323987;28;20056;-51
2023/08/14 09:51:34;;;;;;;7.60;5.35;;;;;;;26.55;39.53;98100.81;10321019;28;20103;-51
2023/08/14 09:56:34;;;;;;;7.30;4.55;;;;;;;26.61;37.97;98088.09;10326619;28;20112;-51
2023/08/14 10:01:34;;;;;;;5.35;4.30;;;;;;;26.11;39.02;98034.28;10323681;28;20057;-51
2023/08/14 10:06:33;;;;;;;5.38;4.13;;;;;;;26.52;39.09;98093.03;10322201;28;20068;-53
2023/08/14 10:11:35;;;;;;;4.55;3.80;;;;;;;26.67;37.78;98085.06;10319417;28;20121;-52
2023/08/14 10:16:36;;;;;;;4.95;3.70;;;;;;;26.81;38.79;98058.44;10331954;28;20659;-52
2023/08/14 10:21:38;;;;;;;6.93;3.78;;;;;;;26.89;37.21;98024.22;10329293;28;20061;-49
2023/08/14 10:26:38;;;;;;;6.97;3.67;;;;;;;27.36;37.42;98070.97;10330136;28;20061;-50
2023/08/14 10:31:37;;;;;;;5.70;3.58;;;;;;;27.04;36.80;98042.84;10329295;28;20057;-52
2023/08/14 10:36:38;;;;;;;4.68;3.65;;;;;;;27.36;35.85;98060.28;10329788;28;20139;-53
2023/08/14 10:41:37;;;;;;;5.93;3.33;;;;;;;27.34;36.34;98048.88;10331553;28;20068;-52
2023/08/14 10:46:42;;;;;;;4.88;3.50;;;;;;;27.32;34.60;98050.78;10331163;28;20049;-50
2023/08/14 10:51:42;;;;;;;8.15;3.85;;;;;;;27.22;34.73;98036.34;10331675;28;20473;-50
2023/08/14 10:56:45;;;;;;;4.22;3.55;;;;;;;27.48;35.55;98045.34;10330546;28;20559;-51
2023/08/14 11:01:49;;;;;;;4.93;3.60;;;;;;;27.56;35.63;98044.84;10325881;28;20132;-49
2023/08/14 11:06:57;;;;;;;4.78;3.60;;;;;;;27.53;35.83;98034.38;10326785;28;20069;-53
2023/08/14 11:11:57;;;;;;;5.73;2.73;;;;;;;27.65;35.22;98036.22;10329954;28;20065;-52
2023/08/14 11:16:56;;;;;;;4.72;3.45;;;;;;;28.01;34.10;98024.06;10322642;28;20560;-51
2023/08/14 11:21:55;;;;;;;5.65;3.35;;;;;;;27.78;34.10;97998.94;10330316;28;20512;-50
2023/08/14 11:26:57;;;;;;;4.45;3.20;;;;;;;27.95;34.17;98004.00;10320971;28;20816;-51
2023/08/14 11:31:56;;;;;;;4.22;3.40;;;;;;;28.25;34.18;98001.06;10327100;28;20073;-52
2023/08/14 11:36:58;;;;;;;4.38;3.15;;;;;;;28.09;33.89;97996.91;10320936;28;20072;-52
2023/08/14 11:41:57;;;;;;;4.03;3.17;;;;;;;28.04;33.63;97978.50;10326141;28;20061;-52
2023/08/14 11:46:59;;;;;;;43.15;6.38;;;;;;;28.33;33.66;97981.00;10330336;28;20104;-52
2023/08/14 11:52:03;;;;;;;6.30;3.30;;;;;;;28.59;33.67;97976.47;10326488;28;20688;-52
2023/08/14 11:57:02;;;;;;;4.40;2.90;;;;;;;28.63;32.56;97973.47;10327760;28;20491;-52
2023/08/14 12:02:01;;;;;;;4.75;3.25;;;;;;;28.65;32.88;97957.38;10326439;28;20112;-52
2023/08/14 12:07:00;;;;;;;4.00;3.17;;;;;;;28.43;32.90;97961.56;10324983;28;20431;-51
2023/08/14 12:11:59;;;;;;;4.63;2.95;;;;;;;28.39;33.06;97959.22;10327381;28;20037;-50
2023/08/14 12:17:05;;;;;;;4.80;3.10;;;;;;;28.73;32.76;97954.16;10325181;28;20032;-50
2023/08/14 12:22:06;;;;;;;4.40;3.22;;;;;;;28.87;32.50;97952.19;10327765;28;20061;-51
2023/08/14 12:27:15;;;;;;;3.83;3.20;;;;;;;28.91;32.46;97934.13;10325362;28;20061;-51
2023/08/14 12:32:14;;;;;;;6.82;3.53;;;;;;;29.06;31.29;97942.84;10339001;28;20069;-52
2023/08/14 12:37:15;;;;;;;3.97;2.80;;;;;;;28.96;31.64;97907.09;10324675;28;20117;-50
2023/08/14 12:42:14;;;;;;;3.50;3.03;;;;;;;29.44;31.80;97942.72;10326929;28;20095;-51
2023/08/14 12:47:13;;;;;;;3.72;2.95;;;;;;;29.74;31.24;97933.31;10324765;28;20057;-51
2023/08/14 12:52:12;;;;;;;12.90;4.30;;;;;;;30.09;31.50;97933.31;10325752;28;20044;-50
2023/08/14 12:57:13;;;;;;;3.08;2.72;;;;;;;30.28;30.37;97935.41;10322427;28;20033;-50
2023/08/14 13:02:12;;;;;;;3.67;3.17;;;;;;;30.43;30.71;97921.78;10321933;28;20500;-51
2023/08/14 13:07:11;;;;;;;3.63;3.00;;;;;;;30.10;30.34;97923.44;10323107;28;20576;-52
2023/08/14 13:12:10;;;;;;;3.83;3.10;;;;;;;29.98;30.65;97919.06;10324131;28;21176;-50
2023/08/14 13:17:09;;;;;;;4.53;3.35;;;;;;;29.83;30.56;97916.53;10324689;28;20112;-51
2023/08/14 13:22:08;;;;;;;4.65;3.38;;;;;;;29.91;30.65;97887.44;10324619;28;20029;-50
2023/08/14 13:27:07;;;;;;;3.92;3.10;;;;;;;29.98;30.83;97903.00;10325315;28;20564;-49
2023/08/14 13:32:06;;;;;;;5.90;3.40;;;;;;;30.19;31.02;97893.28;10323682;28;20502;-51
2023/08/14 13:37:05;;;;;;;7.68;3.35;;;;;;;29.51;30.91;97894.97;10323584;28;20514;-50
2023/08/14 13:42:04;;;;;;;3.72;3.30;;;;;;;29.42;31.15;97893.84;10323876;28;20588;-50
2023/08/14 13:47:03;;;;;;;5.53;2.95;;;;;;;29.57;31.46;97888.28;10321750;28;20503;-51
2023/08/14 13:52:02;;;;;;;3.47;2.80;;;;;;;29.89;31.13;97877.81;10322482;28;20535;-53
2023/08/14 13:57:02;;;;;;;7.38;3.30;;;;;;;30.12;31.55;97882.22;10324557;28;20571;-52
2023/08/14 14:02:01;;;;;;;4.03;3.20;;;;;;;30.24;31.24;97883.06;10320100;28;20076;-52
2023/08/14 14:07:00;;;;;;;4.18;3.53;;;;;;;30.29;31.14;97882.69;10315523;28;20144;-49
2023/08/14 14:11:59;;;;;;;4.28;3.30;;;;;;;30.32;31.23;97879.75;10321281;28;20160;-51
2023/08/14 14:17:00;;;;;;;6.78;3.20;;;;;;;30.13;31.03;97877.69;10320540;28;20073;-53
2023/08/14 14:22:00;;;;;;;3.90;3.35;;;;;;;30.01;30.95;97851.91;10319757;28;20137;-52
2023/08/14 14:26:59;;;;;;;4.43;3.20;;;;;;;30.30;31.55;97877.22;10322907;28;20064;-53
2023/08/14 14:31:59;;;;;;;4.40;3.13;;;;;;;30.59;31.32;97833.03;10320711;28;20154;-52
2023/08/14 14:36:58;;;;;;;5.20;3.75;;;;;;;31.01;30.66;97874.22;10321647;28;20053;-52
2023/08/14 14:41:57;;;;;;;4.45;3.63;;;;;;;30.76;30.58;97876.19;10321525;28;20124;-52
2023/08/14 14:46:55;;;;;;;5.90;3.83;;;;;;;30.26;31.51;97880.28;10324323;28;20029;-51
2023/08/14 14:51:55;;;;;;;5.57;3.75;;;;;;;30.08;31.65;97878.06;10320125;28;20044;-51
2023/08/14 14:56:54;;;;;;;5.85;3.85;;;;;;;30.09;32.05;97868.22;10320226;28;20092;-52
2023/08/14 15:01:52;;;;;;;6.38;3.95;;;;;;;30.13;31.50;97875.88;10327011;28;20037;-51
2023/08/14 15:06:51;;;;;;;13.05;7.97;;;;;;;30.14;31.96;97874.06;10330788;28;20527;-50
2023/08/14 15:11:50;;;;;;;9.38;4.75;;;;;;;30.11;32.10;97871.63;10330341;28;20030;-50
2023/08/14 15:16:52;;;;;;;6.03;3.75;;;;;;;30.03;31.71;97844.63;10330796;28;20041;-51
2023/08/14 15:21:51;;;;;;;8.70;4.35;;;;;;;30.17;32.59;97872.97;10329829;28;20073;-50
2023/08/14 15:26:50;;;;;;;6.28;3.65;;;;;;;30.20;32.57;97870.88;10326962;28;20106;-52
2023/08/14 15:31:49;;;;;;;6.45;3.75;;;;;;;30.15;32.82;97872.25;10326878;28;20037;-51
2023/08/14 15:36:48;;;;;;;6.07;4.15;;;;;;;30.08;32.91;97875.38;10329889;28;20056;-50
2023/08/14 15:41:47;;;;;;;6.70;4.22;;;;;;;29.99;32.85;97868.09;10325092;28;20120;-50
2023/08/14 15:46:46;;;;;;;6.28;4.03;;;;;;;29.77;33.41;97878.75;10333591;28;20124;-52
2023/08/14 15:51:45;;;;;;;10.52;4.90;;;;;;;29.48;34.23;97882.69;10330141;28;20056;-52
2023/08/14 15:56:44;;;;;;;7.82;4.97;;;;;;;29.51;34.42;97886.94;10328772;28;20112;-53
2023/08/14 16:01:45;;;;;;;9.88;5.53;;;;;;;29.07;35.12;97827.84;10329382;28;20034;-52
2023/08/14 16:06:44;;;;;;;10.73;5.70;;;;;;;29.38;34.83;97889.69;10330479;28;20076;-51
2023/08/14 16:11:44;;;;;;;7.93;5.28;;;;;;;29.15;35.16;97859.31;10329582;28;20029;-52
2023/08/14 16:16:43;;;;;;;10.63;6.55;;;;;;;29.25;35.39;97883.53;10330820;28;20065;-53
2023/08/14 16:21:42;;;;;;;9.73;5.22;;;;;;;29.03;35.55;97847.72;10328847;28;20032;-53
2023/08/14 16:26:41;;;;;;;9.60;5.47;;;;;;;29.14;35.36;97886.19;10329004;28;20056;-51
2023/08/14 16:31:40;;;;;;;7.63;4.90;;;;;;;29.03;36.00;97890.47;10326922;28;20048;-52
2023/08/14 16:36:39;;;;;;;10.27;5.22;;;;;;;28.99;36.07;97885.47;10329455;28;20025;-53
2023/08/14 16:41:38;;;;;;;6.22;4.90;;;;;;;28.85;36.13;97883.81;10329448;28;20099;-53
2023/08/14 16:46:37;;;;;;;10.80;5.40;;;;;;;28.82;36.99;97884.06;10328475;28;20091;-51
2023/08/14 16:51:36;;;;;;;10.48;5.72;;;;;;;28.63;37.41;97882.69;10328288;28;20047;-54
2023/08/14 16:56:37;;;;;;;9.05;6.15;;;;;;;28.62;38.74;97891.69;10327488;28;20052;-51
2023/08/14 17:01:37;;;;;;;10.80;6.65;;;;;;;28.50;40.56;97892.59;10323280;28;20464;-52
2023/08/14 17:06:35;;;;;;;10.20;5.65;;;;;;;28.33;41.45;97887.59;10325994;28;20080;-51
2023/08/14 17:11:34;;;;;;;9.43;5.55;;;;;;;28.14;42.14;97886.22;10324030;28;20021;-51
2023/08/14 17:16:33;;;;;;;10.10;5.50;;;;;;;27.94;42.91;97894.72;10320899;28;20567;-52
2023/08/14 17:21:32;;;;;;;9.13;5.22;;;;;;;27.66;43.28;97896.66;10324851;28;20850;-52
2023/08/14 17:26:31;;;;;;;8.02;5.03;;;;;;;27.39;43.72;97904.66;10325173;28;20021;-51
2023/08/14 17:31:30;;;;;;;9.00;5.40;;;;;;;27.16;44.25;97908.84;10323729;28;20107;-53
2023/08/14 17:36:29;;;;;;;8.30;5.18;;;;;;;27.00;44.65;97901.00;10323054;28;20026;-52
2023/08/14 17:41:28;;;;;;;8.75;5.90;;;;;;;26.93;44.57;97913.03;10324461;28;20083;-50
2023/08/14 17:46:27;;;;;;;11.57;6.30;;;;;;;26.81;45.19;97914.66;10325103;28;20104;-50
2023/08/14 17:51:26;;;;;;;10.45;5.88;;;;;;;26.54;44.90;97906.63;10323398;28;20122;-51
2023/08/14 17:56:25;;;;;;;6.60;4.88;;;;;;;26.51;45.42;97923.66;10323891;28;20033;-50
2023/08/14 18:01:24;;;;;;;8.27;6.07;;;;;;;26.45;45.99;97932.03;10322411;28;20069;-50
2023/08/14 18:06:24;;;;;;;8.88;5.40;;;;;;;26.24;46.13;97925.38;10325793;28;20048;-52
2023/08/14 18:11:23;;;;;;;9.93;6.07;;;;;;;26.17;45.68;97930.19;10324390;28;20060;-50
2023/08/14 18:16:21;;;;;;;9.07;5.65;;;;;;;26.11;45.88;97942.06;10322156;28;20125;-51
2023/08/14 18:21:20;;;;;;;6.80;5.63;;;;;;;25.94;46.39;97923.63;10324135;28;20052;-51
2023/08/14 18:26:19;;;;;;;8.27;6.20;;;;;;;26.08;46.81;97952.03;10321594;28;20018;-50
2023/08/14 18:31:18;;;;;;;9.43;6.25;;;;;;;25.83;47.22;97928.72;10326880;28;20563;-51
2023/08/14 18:36:17;;;;;;;9.13;6.00;;;;;;;25.89;47.31;97962.94;10333107;28;20057;-51
2023/08/14 18:41:16;;;;;;;9.95;6.35;;;;;;;25.81;47.75;97962.50;10333524;28;20120;-53
2023/08/14 18:46:15;;;;;;;13.02;6.40;;;;;;;25.74;48.42;97970.88;10332532;28;20052;-52
2023/08/14 18:51:14;;;;;;;10.25;7.18;;;;;;;25.66;48.55;97962.47;10327330;28;20060;-52
2023/08/14 18:56:13;;;;;;;10.43;7.32;;;;;;;25.58;48.96;97969.22;10330191;28;20067;-52
2023/08/14 19:01:12;;;;;;;9.00;6.00;;;;;;;25.43;49.34;97958.47;10331102;28;20112;-52
2023/08/14 19:06:11;;;;;;;9.48;5.97;;;;;;;25.40;49.45;97971.09;10332125;28;20124;-50
2023/08/14 19:11:11;;;;;;;9.00;6.25;;;;;;;25.23;49.59;97943.72;10331106;28;20049;-55
2023/08/14 19:16:10;;;;;;;9.02;5.63;;;;;;;25.26;49.61;97964.78;10327042;28;20061;-52
2023/08/14 19:21:09;;;;;;;6.13;5.50;;;;;;;25.22;49.96;97968.56;10332745;28;20104;-51
2023/08/14 19:26:08;;;;;;;8.45;6.07;;;;;;;25.22;50.15;97971.22;10331125;28;20037;-51
2023/08/14 19:31:07;;;;;;;7.93;5.95;;;;;;;25.22;50.14;97967.69;10329737;28;20120;-52
2023/08/14 19:36:06;;;;;;;7.18;5.85;;;;;;;25.17;50.16;97970.59;10334785;28;20481;-52
2023/08/14 19:41:05;;;;;;;8.48;5.93;;;;;;;25.10;50.49;97964.78;10331333;28;20508;-50
2023/08/14 19:46:04;;;;;;;6.57;5.90;;;;;;;24.98;49.92;97964.63;10331383;28;20069;-51
2023/08/14 19:51:03;;;;;;;8.50;5.78;;;;;;;25.01;49.82;97967.09;10330661;28;20135;-51
2023/08/14 19:56:03;;;;;;;10.40;6.50;;;;;;;24.99;50.62;97969.88;10330795;28;20061;-53
2023/08/14 20:01:02;;;;;;;13.30;6.53;;;;;;;24.88;52.32;97980.22;10328780;28;20057;-49
2023/08/14 20:06:01;;;;;;;8.57;5.63;;;;;;;24.68;53.01;97974.19;10325453;28;20481;-51
2023/08/14 20:11:04;;;;;;;10.70;6.85;;;;;;;24.55;54.04;97977.59;10325945;28;21765;-49
2023/08/14 20:16:03;;;;;;;15.35;8.13;;;;;;;24.43;54.98;97984.44;10327072;28;20061;-51
2023/08/14 20:21:02;;;;;;;11.75;7.70;;;;;;;24.47;55.34;97981.53;10326862;28;20069;-50
2023/08/14 20:26:03;;;;;;;9.50;7.32;;;;;;;24.48;54.98;97987.69;10331566;28;20488;-52
2023/08/14 20:31:02;;;;;;;9.15;6.85;;;;;;;24.38;54.88;97976.72;10324862;28;20056;-51
2023/08/14 20:36:01;;;;;;;8.27;6.43;;;;;;;24.41;54.89;97981.84;10326202;28;20069;-52
2023/08/14 20:41:00;;;;;;;10.57;7.22;;;;;;;24.33;56.02;97984.03;10329174;28;20040;-50
2023/08/14 20:45:59;;;;;;;11.32;7.45;;;;;;;24.22;57.19;97986.44;10324862;28;20129;-50
2023/08/14 20:50:59;;;;;;;9.00;7.30;;;;;;;24.12;57.18;97979.84;10327108;28;20036;-52
2023/08/14 20:56:00;;;;;;;8.95;6.85;;;;;;;24.14;57.18;97984.13;10324207;28;20117;-52
2023/08/14 21:01:00;;;;;;;9.70;7.10;;;;;;;24.10;57.03;97976.41;10324549;28;20589;-52
2023/08/14 21:05:59;;;;;;;10.30;7.57;;;;;;;23.99;57.36;97980.47;10324333;28;20792;-50
2023/08/14 21:10:59;;;;;;;10.48;7.55;;;;;;;23.93;57.04;97986.09;10321949;28;20495;-51
2023/08/14 21:15:58;;;;;;;8.15;6.30;;;;;;;23.89;57.26;97989.84;10323629;28;20515;-52
2023/08/14 21:20:57;;;;;;;8.68;6.50;;;;;;;23.84;56.92;97981.25;10324840;28;20064;-51
2023/08/14 21:25:56;;;;;;;7.30;6.22;;;;;;;23.75;56.83;97965.84;10325434;28;20133;-50
2023/08/14 21:30:59;;;;;;;8.88;6.70;;;;;;;23.86;56.94;97987.34;10325739;28;20128;-52
2023/08/14 21:35:58;;;;;;;12.02;7.10;;;;;;;23.85;57.05;97988.28;10321574;28;20581;-53
2023/08/14 21:41:02;;;;;;;8.57;7.07;;;;;;;23.79;57.48;97984.13;10326575;28;20056;-53
2023/08/14 21:46:01;;;;;;;14.52;8.23;;;;;;;23.78;58.50;97984.25;10322846;28;20532;-51
2023/08/14 21:51:01;;;;;;;12.88;9.15;;;;;;;23.68;59.20;97990.91;10324021;28;20057;-49
2023/08/14 21:56:00;;;;;;;18.05;8.73;;;;;;;23.62;58.84;97992.94;10320882;28;20117;-51
2023/08/14 22:01:00;;;;;;;11.02;7.82;;;;;;;23.57;59.30;97987.03;10322395;28;20032;-52
2023/08/14 22:06:00;;;;;;;10.18;8.05;;;;;;;23.51;60.82;97981.19;10326496;28;20526;-52
2023/08/14 22:11:00;;;;;;;11.18;8.43;;;;;;;23.43;61.77;97974.44;10330977;28;20069;-51
2023/08/14 22:15:59;;;;;;;13.13;8.32;;;;;;;23.39;62.86;97972.88;10331883;28;20124;-52
2023/08/14 22:20:58;;;;;;;11.45;7.80;;;;;;;23.19;63.98;97973.00;10332163;28;20038;-52
2023/08/14 22:25:57;;;;;;;10.52;6.93;;;;;;;22.85;63.86;97949.94;10330907;28;20602;-52
2023/08/14 22:30:56;;;;;;;9.85;7.28;;;;;;;22.79;64.42;97970.47;10329088;28;20724;-52
2023/08/14 22:35:56;;;;;;;7.63;6.35;;;;;;;22.75;64.31;97979.47;10330991;28;20048;-51
2023/08/14 22:40:55;;;;;;;7.32;6.05;;;;;;;22.70;63.80;97965.59;10331202;28;20468;-52
2023/08/14 22:45:54;;;;;;;11.73;7.97;;;;;;;22.55;66.19;97977.75;10332520;28;20400;-50
2023/08/14 22:50:53;;;;;;;10.88;8.20;;;;;;;22.15;70.20;97963.66;10331261;28;20061;-49
2023/08/14 22:55:52;;;;;;;12.57;7.95;;;;;;;22.09;71.71;97961.31;10331657;28;20025;-52
2023/08/14 23:00:51;;;;;;;11.05;8.20;;;;;;;22.08;71.61;97958.72;10331141;28;20045;-52
2023/08/14 23:05:50;;;;;;;8.82;7.93;;;;;;;22.03;71.14;97942.22;10329746;28;20034;-50
2023/08/14 23:10:49;;;;;;;11.18;8.18;;;;;;;22.09;70.72;97936.66;10331243;28;20025;-51
2023/08/14 23:15:47;;;;;;;12.88;7.57;;;;;;;22.08;70.92;97941.06;10329106;28;20553;-52